sensor_id;sensor_type;location;lat;lon;timestamp;P1;durP1;ratioP1;P2;durP2;ratioP2
56943;SDS011;42848;42.524;12.052;2022-11-21T00:00:24;1.83;;;1.10;;
56943;SDS011;42848;42.524;12.052;2022-11-21T00:02:50;1.95;;;1.10;;
56943;SDS011;42848;42.524;12.052;2022-11-21T00:05:16;4.25;;;1.70;;
56943;SDS011;42848;42.524;12.052;2022-11-21T00:07:42;2.60;;;1.70;;
56943;SDS011;42848;42.524;12.052;2022-11-21T00:10:08;2.40;;;1.50;;
56943;SDS011;42848;42.524;12.052;2022-11-21T00:12:34;2.20;;;1.40;;
56943;SDS011;42848;42.524;12.052;2022-11-21T00:14:59;2.13;;;1.30;;
56943;SDS011;42848;42.524;12.052;2022-11-21T00:17:25;2.00;;;1.13;;
56943;SDS011;42848;42.524;12.052;2022-11-21T00:19:51;2.80;;;1.00;;
56943;SDS011;42848;42.524;12.052;2022-11-21T00:22:16;2.08;;;1.10;;
56943;SDS011;42848;42.524;12.052;2022-11-21T00:24:42;1.95;;;1.00;;
56943;SDS011;42848;42.524;12.052;2022-11-21T00:27:08;1.52;;;0.80;;
56943;SDS011;42848;42.524;12.052;2022-11-21T00:29:33;1.58;;;1.10;;
56943;SDS011;42848;42.524;12.052;2022-11-21T00:31:59;3.42;;;1.75;;
56943;SDS011;42848;42.524;12.052;2022-11-21T00:34:25;2.42;;;1.65;;
56943;SDS011;42848;42.524;12.052;2022-11-21T00:36:50;2.33;;;1.60;;
56943;SDS011;42848;42.524;12.052;2022-11-21T00:39:16;2.25;;;1.40;;
56943;SDS011;42848;42.524;12.052;2022-11-21T00:41:41;3.70;;;1.60;;
56943;SDS011;42848;42.524;12.052;2022-11-21T00:44:07;1.90;;;1.20;;
56943;SDS011;42848;42.524;12.052;2022-11-21T00:46:33;2.45;;;1.52;;
56943;SDS011;42848;42.524;12.052;2022-11-21T00:48:58;3.67;;;1.70;;
56943;SDS011;42848;42.524;12.052;2022-11-21T00:51:24;2.53;;;1.52;;
56943;SDS011;42848;42.524;12.052;2022-11-21T00:53:50;2.63;;;1.90;;
56943;SDS011;42848;42.524;12.052;2022-11-21T00:56:15;2.92;;;1.80;;
56943;SDS011;42848;42.524;12.052;2022-11-21T00:58:41;2.70;;;1.60;;
56943;SDS011;42848;42.524;12.052;2022-11-21T01:01:11;2.40;;;1.50;;
56943;SDS011;42848;42.524;12.052;2022-11-21T01:03:37;2.40;;;1.55;;
56943;SDS011;42848;42.524;12.052;2022-11-21T01:06:05;2.50;;;1.60;;
56943;SDS011;42848;42.524;12.052;2022-11-21T01:08:36;2.40;;;1.30;;
56943;SDS011;42848;42.524;12.052;2022-11-21T01:11:04;3.13;;;1.50;;
56943;SDS011;42848;42.524;12.052;2022-11-21T01:13:38;2.15;;;1.30;;
56943;SDS011;42848;42.524;12.052;2022-11-21T01:16:05;2.75;;;1.10;;
56943;SDS011;42848;42.524;12.052;2022-11-21T01:18:33;2.13;;;1.20;;
56943;SDS011;42848;42.524;12.052;2022-11-21T01:21:03;4.40;;;2.10;;
56943;SDS011;42848;42.524;12.052;2022-11-21T01:23:31;2.72;;;1.70;;
56943;SDS011;42848;42.524;12.052;2022-11-21T01:26:04;1.85;;;1.10;;
56943;SDS011;42848;42.524;12.052;2022-11-21T01:28:31;3.17;;;1.23;;
56943;SDS011;42848;42.524;12.052;2022-11-21T01:31:10;2.25;;;1.15;;
56943;SDS011;42848;42.524;12.052;2022-11-21T01:33:38;2.30;;;1.20;;
56943;SDS011;42848;42.524;12.052;2022-11-21T01:36:05;3.38;;;1.08;;
56943;SDS011;42848;42.524;12.052;2022-11-21T01:38:35;2.20;;;0.98;;
56943;SDS011;42848;42.524;12.052;2022-11-21T01:41:02;3.70;;;1.00;;
56943;SDS011;42848;42.524;12.052;2022-11-21T01:43:28;6.78;;;1.60;;
56943;SDS011;42848;42.524;12.052;2022-11-21T01:46:12;3.40;;;1.27;;
56943;SDS011;42848;42.524;12.052;2022-11-21T01:51:36;2.50;;;1.48;;
56943;SDS011;42848;42.524;12.052;2022-11-21T01:54:28;4.43;;;1.60;;
56943;SDS011;42848;42.524;12.052;2022-11-21T02:00:03;3.75;;;1.70;;
56943;SDS011;42848;42.524;12.052;2022-11-21T02:02:23;3.97;;;1.80;;
56943;SDS011;42848;42.524;12.052;2022-11-21T02:04:52;4.95;;;3.20;;
56943;SDS011;42848;42.524;12.052;2022-11-21T02:07:20;5.32;;;3.53;;
56943;SDS011;42848;42.524;12.052;2022-11-21T02:09:49;4.65;;;3.08;;
56943;SDS011;42848;42.524;12.052;2022-11-21T02:12:51;4.78;;;2.90;;
56943;SDS011;42848;42.524;12.052;2022-11-21T02:15:13;4.22;;;2.90;;
56943;SDS011;42848;42.524;12.052;2022-11-21T02:17:40;3.75;;;1.90;;
56943;SDS011;42848;42.524;12.052;2022-11-21T02:20:09;2.72;;;1.63;;
56943;SDS011;42848;42.524;12.052;2022-11-21T02:25:11;3.47;;;1.98;;
56943;SDS011;42848;42.524;12.052;2022-11-21T02:27:41;2.95;;;1.30;;
56943;SDS011;42848;42.524;12.052;2022-11-21T02:30:08;2.70;;;1.60;;
56943;SDS011;42848;42.524;12.052;2022-11-21T02:32:39;4.22;;;2.15;;
56943;SDS011;42848;42.524;12.052;2022-11-21T02:35:07;3.33;;;2.00;;
56943;SDS011;42848;42.524;12.052;2022-11-21T02:37:34;3.67;;;1.95;;
56943;SDS011;42848;42.524;12.052;2022-11-21T02:40:02;2.97;;;1.80;;
56943;SDS011;42848;42.524;12.052;2022-11-21T02:42:35;2.53;;;1.40;;
56943;SDS011;42848;42.524;12.052;2022-11-21T02:47:40;3.95;;;1.63;;
56943;SDS011;42848;42.524;12.052;2022-11-21T02:50:09;2.40;;;1.42;;
56943;SDS011;42848;42.524;12.052;2022-11-21T02:52:40;2.30;;;1.10;;
56943;SDS011;42848;42.524;12.052;2022-11-21T02:55:06;2.42;;;1.20;;
56943;SDS011;42848;42.524;12.052;2022-11-21T02:57:32;2.00;;;1.00;;
56943;SDS011;42848;42.524;12.052;2022-11-21T02:59:58;1.63;;;0.95;;
56943;SDS011;42848;42.524;12.052;2022-11-21T03:02:24;2.10;;;1.00;;
56943;SDS011;42848;42.524;12.052;2022-11-21T03:04:50;2.10;;;1.20;;
56943;SDS011;42848;42.524;12.052;2022-11-21T03:07:16;1.95;;;1.10;;
56943;SDS011;42848;42.524;12.052;2022-11-21T03:09:41;1.70;;;1.10;;
56943;SDS011;42848;42.524;12.052;2022-11-21T03:12:07;2.17;;;1.23;;
56943;SDS011;42848;42.524;12.052;2022-11-21T03:14:34;2.60;;;1.30;;
56943;SDS011;42848;42.524;12.052;2022-11-21T03:17:00;2.08;;;1.20;;
56943;SDS011;42848;42.524;12.052;2022-11-21T03:19:26;2.08;;;1.08;;
56943;SDS011;42848;42.524;12.052;2022-11-21T03:21:52;2.05;;;1.30;;
56943;SDS011;42848;42.524;12.052;2022-11-21T03:24:18;1.98;;;0.98;;
56943;SDS011;42848;42.524;12.052;2022-11-21T03:26:44;2.90;;;1.02;;
56943;SDS011;42848;42.524;12.052;2022-11-21T03:29:10;3.45;;;1.00;;
56943;SDS011;42848;42.524;12.052;2022-11-21T03:31:35;1.50;;;0.80;;
56943;SDS011;42848;42.524;12.052;2022-11-21T03:34:01;2.50;;;1.00;;
56943;SDS011;42848;42.524;12.052;2022-11-21T03:36:27;1.40;;;0.75;;
56943;SDS011;42848;42.524;12.052;2022-11-21T03:38:56;2.00;;;0.85;;
56943;SDS011;42848;42.524;12.052;2022-11-21T03:41:22;2.10;;;1.10;;
56943;SDS011;42848;42.524;12.052;2022-11-21T03:43:55;3.13;;;1.05;;
56943;SDS011;42848;42.524;12.052;2022-11-21T03:46:22;1.60;;;0.80;;
56943;SDS011;42848;42.524;12.052;2022-11-21T03:48:48;1.63;;;0.90;;
56943;SDS011;42848;42.524;12.052;2022-11-21T03:51:14;1.60;;;0.90;;
56943;SDS011;42848;42.524;12.052;2022-11-21T03:53:40;2.08;;;0.80;;
56943;SDS011;42848;42.524;12.052;2022-11-21T03:56:06;2.20;;;1.00;;
56943;SDS011;42848;42.524;12.052;2022-11-21T03:58:32;2.17;;;0.93;;
56943;SDS011;42848;42.524;12.052;2022-11-21T04:00:57;3.38;;;1.00;;
56943;SDS011;42848;42.524;12.052;2022-11-21T04:03:23;3.58;;;1.00;;
56943;SDS011;42848;42.524;12.052;2022-11-21T04:05:49;1.70;;;0.90;;
56943;SDS011;42848;42.524;12.052;2022-11-21T04:08:14;4.43;;;1.23;;
56943;SDS011;42848;42.524;12.052;2022-11-21T04:10:50;3.67;;;1.10;;
56943;SDS011;42848;42.524;12.052;2022-11-21T04:13:16;1.60;;;0.98;;
56943;SDS011;42848;42.524;12.052;2022-11-21T04:15:42;2.28;;;1.00;;
56943;SDS011;42848;42.524;12.052;2022-11-21T04:18:09;2.50;;;1.05;;
56943;SDS011;42848;42.524;12.052;2022-11-21T04:20:34;2.17;;;1.20;;
56943;SDS011;42848;42.524;12.052;2022-11-21T04:23:00;2.45;;;1.40;;
56943;SDS011;42848;42.524;12.052;2022-11-21T04:25:26;2.00;;;1.20;;
56943;SDS011;42848;42.524;12.052;2022-11-21T04:27:58;2.08;;;1.13;;
56943;SDS011;42848;42.524;12.052;2022-11-21T04:30:26;2.38;;;1.23;;
56943;SDS011;42848;42.524;12.052;2022-11-21T04:32:52;2.78;;;1.58;;
56943;SDS011;42848;42.524;12.052;2022-11-21T04:35:18;7.90;;;2.42;;
56943;SDS011;42848;42.524;12.052;2022-11-21T04:37:44;3.78;;;1.88;;
56943;SDS011;42848;42.524;12.052;2022-11-21T04:40:10;4.72;;;2.13;;
56943;SDS011;42848;42.524;12.052;2022-11-21T04:42:40;3.53;;;1.33;;
56943;SDS011;42848;42.524;12.052;2022-11-21T04:45:07;3.22;;;1.58;;
56943;SDS011;42848;42.524;12.052;2022-11-21T04:47:37;3.17;;;1.60;;
56943;SDS011;42848;42.524;12.052;2022-11-21T04:50:03;2.72;;;1.50;;
56943;SDS011;42848;42.524;12.052;2022-11-21T04:52:29;2.95;;;1.30;;
56943;SDS011;42848;42.524;12.052;2022-11-21T04:54:55;2.90;;;1.70;;
56943;SDS011;42848;42.524;12.052;2022-11-21T04:57:21;2.80;;;1.50;;
56943;SDS011;42848;42.524;12.052;2022-11-21T04:59:47;2.53;;;1.20;;
56943;SDS011;42848;42.524;12.052;2022-11-21T05:02:13;1.70;;;1.10;;
56943;SDS011;42848;42.524;12.052;2022-11-21T05:04:39;2.85;;;1.50;;
56943;SDS011;42848;42.524;12.052;2022-11-21T05:07:04;4.38;;;1.60;;
56943;SDS011;42848;42.524;12.052;2022-11-21T05:09:30;3.67;;;1.70;;
56943;SDS011;42848;42.524;12.052;2022-11-21T05:11:56;3.50;;;1.90;;
56943;SDS011;42848;42.524;12.052;2022-11-21T05:14:40;3.25;;;1.98;;
56943;SDS011;42848;42.524;12.052;2022-11-21T05:17:05;3.72;;;2.00;;
56943;SDS011;42848;42.524;12.052;2022-11-21T05:19:31;5.85;;;2.58;;
56943;SDS011;42848;42.524;12.052;2022-11-21T05:21:57;3.78;;;2.15;;
56943;SDS011;42848;42.524;12.052;2022-11-21T05:24:23;3.75;;;2.20;;
56943;SDS011;42848;42.524;12.052;2022-11-21T05:26:49;3.55;;;2.33;;
56943;SDS011;42848;42.524;12.052;2022-11-21T05:29:14;2.97;;;1.95;;
56943;SDS011;42848;42.524;12.052;2022-11-21T05:31:40;4.90;;;3.00;;
56943;SDS011;42848;42.524;12.052;2022-11-21T05:34:06;5.68;;;2.25;;
56943;SDS011;42848;42.524;12.052;2022-11-21T05:36:31;3.35;;;1.80;;
56943;SDS011;42848;42.524;12.052;2022-11-21T05:38:57;4.15;;;2.20;;
56943;SDS011;42848;42.524;12.052;2022-11-21T05:41:23;3.13;;;1.88;;
56943;SDS011;42848;42.524;12.052;2022-11-21T05:43:48;4.20;;;1.75;;
56943;SDS011;42848;42.524;12.052;2022-11-21T05:46:18;5.82;;;2.78;;
56943;SDS011;42848;42.524;12.052;2022-11-21T05:48:46;6.15;;;2.55;;
56943;SDS011;42848;42.524;12.052;2022-11-21T05:51:13;3.25;;;1.60;;
56943;SDS011;42848;42.524;12.052;2022-11-21T05:53:39;3.95;;;1.70;;
56943;SDS011;42848;42.524;12.052;2022-11-21T05:56:07;2.80;;;1.67;;
56943;SDS011;42848;42.524;12.052;2022-11-21T05:58:37;6.05;;;2.80;;
56943;SDS011;42848;42.524;12.052;2022-11-21T06:01:03;4.47;;;2.40;;
56943;SDS011;42848;42.524;12.052;2022-11-21T06:03:32;4.22;;;2.28;;
56943;SDS011;42848;42.524;12.052;2022-11-21T06:06:06;2.83;;;2.05;;
56943;SDS011;42848;42.524;12.052;2022-11-21T06:08:38;6.97;;;2.50;;
56943;SDS011;42848;42.524;12.052;2022-11-21T06:11:05;2.83;;;1.80;;
56943;SDS011;42848;42.524;12.052;2022-11-21T06:13:33;6.45;;;2.10;;
56943;SDS011;42848;42.524;12.052;2022-11-21T06:18:38;3.42;;;2.50;;
56943;SDS011;42848;42.524;12.052;2022-11-21T06:21:06;4.72;;;2.63;;
56943;SDS011;42848;42.524;12.052;2022-11-21T06:23:42;4.63;;;2.50;;
56943;SDS011;42848;42.524;12.052;2022-11-21T06:26:12;4.82;;;2.20;;
56943;SDS011;42848;42.524;12.052;2022-11-21T06:28:40;4.35;;;2.58;;
56943;SDS011;42848;42.524;12.052;2022-11-21T06:31:10;5.15;;;2.80;;
56943;SDS011;42848;42.524;12.052;2022-11-21T06:33:44;4.70;;;2.70;;
56943;SDS011;42848;42.524;12.052;2022-11-21T06:36:11;8.85;;;3.60;;
56943;SDS011;42848;42.524;12.052;2022-11-21T06:38:38;5.30;;;3.53;;
56943;SDS011;42848;42.524;12.052;2022-11-21T06:41:09;6.18;;;3.60;;
56943;SDS011;42848;42.524;12.052;2022-11-21T06:43:36;8.43;;;3.38;;
56943;SDS011;42848;42.524;12.052;2022-11-21T06:46:02;21.55;;;7.53;;
56943;SDS011;42848;42.524;12.052;2022-11-21T06:48:29;23.08;;;7.25;;
56943;SDS011;42848;42.524;12.052;2022-11-21T06:50:55;23.02;;;7.13;;
56943;SDS011;42848;42.524;12.052;2022-11-21T06:53:22;13.45;;;4.53;;
56943;SDS011;42848;42.524;12.052;2022-11-21T06:55:48;17.65;;;8.15;;
56943;SDS011;42848;42.524;12.052;2022-11-21T06:58:13;11.43;;;5.57;;
56943;SDS011;42848;42.524;12.052;2022-11-21T07:00:39;15.95;;;5.97;;
56943;SDS011;42848;42.524;12.052;2022-11-21T07:03:05;9.32;;;5.22;;
56943;SDS011;42848;42.524;12.052;2022-11-21T07:05:30;8.90;;;4.57;;
56943;SDS011;42848;42.524;12.052;2022-11-21T07:08:00;9.88;;;4.25;;
56943;SDS011;42848;42.524;12.052;2022-11-21T07:10:27;10.50;;;4.30;;
56943;SDS011;42848;42.524;12.052;2022-11-21T07:12:57;4.32;;;2.50;;
56943;SDS011;42848;42.524;12.052;2022-11-21T07:15:42;30.88;;;15.65;;
56943;SDS011;42848;42.524;12.052;2022-11-21T07:18:08;7.93;;;2.70;;
56943;SDS011;42848;42.524;12.052;2022-11-21T07:20:34;3.85;;;2.20;;
56943;SDS011;42848;42.524;12.052;2022-11-21T07:23:00;5.38;;;2.28;;
56943;SDS011;42848;42.524;12.052;2022-11-21T07:25:25;6.20;;;2.40;;
56943;SDS011;42848;42.524;12.052;2022-11-21T07:27:51;3.70;;;2.00;;
56943;SDS011;42848;42.524;12.052;2022-11-21T07:30:17;3.72;;;2.33;;
56943;SDS011;42848;42.524;12.052;2022-11-21T07:32:42;3.83;;;1.98;;
56943;SDS011;42848;42.524;12.052;2022-11-21T07:35:08;6.22;;;3.97;;
56943;SDS011;42848;42.524;12.052;2022-11-21T07:37:38;4.32;;;2.38;;
56943;SDS011;42848;42.524;12.052;2022-11-21T07:40:04;4.53;;;2.30;;
56943;SDS011;42848;42.524;12.052;2022-11-21T07:42:31;4.57;;;2.55;;
56943;SDS011;42848;42.524;12.052;2022-11-21T07:44:57;7.55;;;2.80;;
56943;SDS011;42848;42.524;12.052;2022-11-21T07:47:23;5.53;;;3.10;;
56943;SDS011;42848;42.524;12.052;2022-11-21T07:49:49;5.10;;;2.45;;
56943;SDS011;42848;42.524;12.052;2022-11-21T07:52:15;3.80;;;2.00;;
56943;SDS011;42848;42.524;12.052;2022-11-21T07:54:40;6.90;;;2.47;;
56943;SDS011;42848;42.524;12.052;2022-11-21T07:57:06;4.88;;;2.30;;
56943;SDS011;42848;42.524;12.052;2022-11-21T07:59:32;3.85;;;2.35;;
56943;SDS011;42848;42.524;12.052;2022-11-21T08:01:57;3.50;;;2.08;;
56943;SDS011;42848;42.524;12.052;2022-11-21T08:04:23;3.15;;;2.17;;
56943;SDS011;42848;42.524;12.052;2022-11-21T08:06:48;2.65;;;1.73;;
56943;SDS011;42848;42.524;12.052;2022-11-21T08:09:14;2.97;;;1.80;;
56943;SDS011;42848;42.524;12.052;2022-11-21T08:11:40;4.95;;;3.00;;
56943;SDS011;42848;42.524;12.052;2022-11-21T08:14:05;6.68;;;4.10;;
56943;SDS011;42848;42.524;12.052;2022-11-21T08:16:31;5.22;;;3.20;;
56943;SDS011;42848;42.524;12.052;2022-11-21T08:18:59;5.45;;;3.00;;
56943;SDS011;42848;42.524;12.052;2022-11-21T08:21:26;6.15;;;2.95;;
56943;SDS011;42848;42.524;12.052;2022-11-21T08:23:52;5.43;;;3.08;;
56943;SDS011;42848;42.524;12.052;2022-11-21T08:26:18;8.38;;;3.90;;
56943;SDS011;42848;42.524;12.052;2022-11-21T08:28:44;5.55;;;4.20;;
56943;SDS011;42848;42.524;12.052;2022-11-21T08:31:10;5.70;;;3.30;;
56943;SDS011;42848;42.524;12.052;2022-11-21T08:33:35;7.43;;;3.97;;
56943;SDS011;42848;42.524;12.052;2022-11-21T08:36:04;4.60;;;3.20;;
56943;SDS011;42848;42.524;12.052;2022-11-21T08:38:31;5.57;;;3.58;;
56943;SDS011;42848;42.524;12.052;2022-11-21T08:40:57;7.45;;;4.10;;
56943;SDS011;42848;42.524;12.052;2022-11-21T08:43:41;6.05;;;2.95;;
56943;SDS011;42848;42.524;12.052;2022-11-21T08:46:07;4.32;;;2.80;;
56943;SDS011;42848;42.524;12.052;2022-11-21T08:48:33;4.85;;;2.10;;
56943;SDS011;42848;42.524;12.052;2022-11-21T08:50:59;3.30;;;1.90;;
56943;SDS011;42848;42.524;12.052;2022-11-21T08:53:24;3.38;;;2.00;;
56943;SDS011;42848;42.524;12.052;2022-11-21T08:55:50;4.07;;;1.50;;
56943;SDS011;42848;42.524;12.052;2022-11-21T08:58:18;2.42;;;1.20;;
56943;SDS011;42848;42.524;12.052;2022-11-21T09:00:43;3.35;;;1.60;;
56943;SDS011;42848;42.524;12.052;2022-11-21T09:03:09;2.38;;;1.60;;
56943;SDS011;42848;42.524;12.052;2022-11-21T09:05:35;2.38;;;1.17;;
56943;SDS011;42848;42.524;12.052;2022-11-21T09:08:00;2.55;;;1.40;;
56943;SDS011;42848;42.524;12.052;2022-11-21T09:10:26;3.55;;;2.60;;
56943;SDS011;42848;42.524;12.052;2022-11-21T09:12:53;4.72;;;2.70;;
56943;SDS011;42848;42.524;12.052;2022-11-21T09:15:21;5.20;;;3.60;;
56943;SDS011;42848;42.524;12.052;2022-11-21T09:18:05;3.92;;;2.50;;
56943;SDS011;42848;42.524;12.052;2022-11-21T09:20:33;3.30;;;1.50;;
56943;SDS011;42848;42.524;12.052;2022-11-21T09:23:10;2.45;;;1.30;;
56943;SDS011;42848;42.524;12.052;2022-11-21T09:28:04;2.85;;;1.52;;
56943;SDS011;42848;42.524;12.052;2022-11-21T09:30:31;4.30;;;2.22;;
56943;SDS011;42848;42.524;12.052;2022-11-21T09:33:00;4.13;;;2.00;;
56943;SDS011;42848;42.524;12.052;2022-11-21T09:35:26;5.40;;;2.25;;
56943;SDS011;42848;42.524;12.052;2022-11-21T09:37:52;3.45;;;2.10;;
56943;SDS011;42848;42.524;12.052;2022-11-21T09:40:18;3.25;;;2.47;;
56943;SDS011;42848;42.524;12.052;2022-11-21T09:45:45;3.08;;;1.83;;
56943;SDS011;42848;42.524;12.052;2022-11-21T09:51:05;5.13;;;2.20;;
56943;SDS011;42848;42.524;12.052;2022-11-21T09:53:36;2.88;;;2.00;;
56943;SDS011;42848;42.524;12.052;2022-11-21T09:56:16;3.78;;;2.10;;
56943;SDS011;42848;42.524;12.052;2022-11-21T09:59:22;4.00;;;2.42;;
56943;SDS011;42848;42.524;12.052;2022-11-21T10:01:39;3.42;;;2.30;;
56943;SDS011;42848;42.524;12.052;2022-11-21T10:04:04;3.85;;;2.47;;
56943;SDS011;42848;42.524;12.052;2022-11-21T10:06:31;3.78;;;2.20;;
56943;SDS011;42848;42.524;12.052;2022-11-21T10:11:40;18.52;;;7.68;;
56943;SDS011;42848;42.524;12.052;2022-11-21T10:17:08;3.78;;;2.53;;
56943;SDS011;42848;42.524;12.052;2022-11-21T10:25:23;6.85;;;3.60;;
56943;SDS011;42848;42.524;12.052;2022-11-21T10:27:53;4.05;;;2.90;;
56943;SDS011;42848;42.524;12.052;2022-11-21T10:30:23;3.83;;;2.50;;
56943;SDS011;42848;42.524;12.052;2022-11-21T10:32:53;5.25;;;3.08;;
56943;SDS011;42848;42.524;12.052;2022-11-21T10:35:39;4.45;;;2.47;;
56943;SDS011;42848;42.524;12.052;2022-11-21T10:38:29;4.82;;;3.10;;
56943;SDS011;42848;42.524;12.052;2022-11-21T10:40:59;6.07;;;3.63;;
56943;SDS011;42848;42.524;12.052;2022-11-21T10:46:22;7.82;;;3.05;;
56943;SDS011;42848;42.524;12.052;2022-11-21T10:49:01;4.47;;;2.60;;
56943;SDS011;42848;42.524;12.052;2022-11-21T10:51:36;5.60;;;2.35;;
56943;SDS011;42848;42.524;12.052;2022-11-21T10:54:06;4.72;;;2.72;;
56943;SDS011;42848;42.524;12.052;2022-11-21T10:56:53;7.13;;;3.55;;
56943;SDS011;42848;42.524;12.052;2022-11-21T10:59:25;6.13;;;3.78;;
56943;SDS011;42848;42.524;12.052;2022-11-21T11:01:59;10.32;;;5.00;;
56943;SDS011;42848;42.524;12.052;2022-11-21T11:04:37;5.30;;;3.70;;
56943;SDS011;42848;42.524;12.052;2022-11-21T11:07:26;3.88;;;2.70;;
56943;SDS011;42848;42.524;12.052;2022-11-21T11:10:13;4.00;;;2.90;;
56943;SDS011;42848;42.524;12.052;2022-11-21T11:12:40;4.53;;;2.95;;
56943;SDS011;42848;42.524;12.052;2022-11-21T11:15:24;4.32;;;3.28;;
56943;SDS011;42848;42.524;12.052;2022-11-21T11:17:53;4.55;;;2.70;;
56943;SDS011;42848;42.524;12.052;2022-11-21T11:25:52;3.75;;;1.60;;
56943;SDS011;42848;42.524;12.052;2022-11-21T11:28:19;3.00;;;1.60;;
56943;SDS011;42848;42.524;12.052;2022-11-21T11:30:48;3.55;;;1.95;;
56943;SDS011;42848;42.524;12.052;2022-11-21T11:38:59;5.60;;;2.08;;
56943;SDS011;42848;42.524;12.052;2022-11-21T11:48:08;2.58;;;1.30;;
56943;SDS011;42848;42.524;12.052;2022-11-21T12:01:09;3.53;;;1.73;;
56943;SDS011;42848;42.524;12.052;2022-11-21T12:12:27;6.35;;;2.72;;
56943;SDS011;42848;42.524;12.052;2022-11-21T12:24:08;9.43;;;4.43;;
56943;SDS011;42848;42.524;12.052;2022-11-21T12:31:26;5.30;;;2.80;;
56943;SDS011;42848;42.524;12.052;2022-11-21T12:34:10;4.55;;;2.72;;
56943;SDS011;42848;42.524;12.052;2022-11-21T12:36:56;4.00;;;2.10;;
56943;SDS011;42848;42.524;12.052;2022-11-21T12:42:46;6.97;;;4.65;;
56943;SDS011;42848;42.524;12.052;2022-11-21T12:45:28;5.90;;;3.30;;
56943;SDS011;42848;42.524;12.052;2022-11-21T12:48:10;3.47;;;2.00;;
56943;SDS011;42848;42.524;12.052;2022-11-21T12:51:16;3.88;;;2.60;;
56943;SDS011;42848;42.524;12.052;2022-11-21T12:59:26;5.93;;;3.20;;
56943;SDS011;42848;42.524;12.052;2022-11-21T13:02:11;16.40;;;8.32;;
56943;SDS011;42848;42.524;12.052;2022-11-21T13:04:57;10.32;;;6.43;;
56943;SDS011;42848;42.524;12.052;2022-11-21T13:07:24;10.23;;;5.43;;
56943;SDS011;42848;42.524;12.052;2022-11-21T13:09:56;9.32;;;7.03;;
56943;SDS011;42848;42.524;12.052;2022-11-21T13:16:05;6.10;;;3.78;;
56943;SDS011;42848;42.524;12.052;2022-11-21T13:18:44;8.07;;;4.20;;
56943;SDS011;42848;42.524;12.052;2022-11-21T13:27:22;7.30;;;4.18;;
56943;SDS011;42848;42.524;12.052;2022-11-21T13:40:38;2.95;;;1.50;;
56943;SDS011;42848;42.524;12.052;2022-11-21T13:43:25;5.53;;;3.90;;
56943;SDS011;42848;42.524;12.052;2022-11-21T13:45:52;6.57;;;3.90;;
56943;SDS011;42848;42.524;12.052;2022-11-21T13:54:10;8.32;;;5.70;;
56943;SDS011;42848;42.524;12.052;2022-11-21T14:00:09;5.78;;;4.00;;
56943;SDS011;42848;42.524;12.052;2022-11-21T14:08:16;4.18;;;3.00;;
56943;SDS011;42848;42.524;12.052;2022-11-21T14:10:47;4.95;;;2.70;;
56943;SDS011;42848;42.524;12.052;2022-11-21T14:13:26;5.28;;;3.10;;
56943;SDS011;42848;42.524;12.052;2022-11-21T14:16:15;5.85;;;2.22;;
56943;SDS011;42848;42.524;12.052;2022-11-21T14:18:59;3.42;;;1.83;;
56943;SDS011;42848;42.524;12.052;2022-11-21T14:21:27;4.60;;;2.65;;
56943;SDS011;42848;42.524;12.052;2022-11-21T14:23:56;5.60;;;3.20;;
56943;SDS011;42848;42.524;12.052;2022-11-21T14:26:29;4.63;;;2.97;;
56943;SDS011;42848;42.524;12.052;2022-11-21T14:32:12;3.33;;;1.88;;
56943;SDS011;42848;42.524;12.052;2022-11-21T14:34:38;3.07;;;1.93;;
56943;SDS011;42848;42.524;12.052;2022-11-21T14:37:04;4.43;;;3.33;;
56943;SDS011;42848;42.524;12.052;2022-11-21T14:39:37;2.30;;;1.40;;
56943;SDS011;42848;42.524;12.052;2022-11-21T14:42:05;2.35;;;1.42;;
56943;SDS011;42848;42.524;12.052;2022-11-21T14:44:37;3.63;;;2.10;;
56943;SDS011;42848;42.524;12.052;2022-11-21T14:47:13;3.35;;;1.50;;
56943;SDS011;42848;42.524;12.052;2022-11-21T14:49:47;7.57;;;4.30;;
56943;SDS011;42848;42.524;12.052;2022-11-21T14:52:21;5.95;;;3.47;;
56943;SDS011;42848;42.524;12.052;2022-11-21T14:54:56;8.07;;;4.47;;
56943;SDS011;42848;42.524;12.052;2022-11-21T14:59:49;9.60;;;6.03;;
56943;SDS011;42848;42.524;12.052;2022-11-21T15:02:29;7.38;;;4.07;;
56943;SDS011;42848;42.524;12.052;2022-11-21T15:04:59;8.98;;;4.80;;
56943;SDS011;42848;42.524;12.052;2022-11-21T15:07:43;13.73;;;7.47;;
56943;SDS011;42848;42.524;12.052;2022-11-21T15:10:12;11.30;;;6.90;;
56943;SDS011;42848;42.524;12.052;2022-11-21T15:12:45;24.17;;;12.98;;
56943;SDS011;42848;42.524;12.052;2022-11-21T15:17:46;37.67;;;21.10;;
56943;SDS011;42848;42.524;12.052;2022-11-21T15:22:40;63.25;;;35.63;;
56943;SDS011;42848;42.524;12.052;2022-11-21T15:27:39;90.80;;;52.37;;
56943;SDS011;42848;42.524;12.052;2022-11-21T15:30:18;23.30;;;14.00;;
56943;SDS011;42848;42.524;12.052;2022-11-21T15:32:59;13.25;;;7.60;;
56943;SDS011;42848;42.524;12.052;2022-11-21T15:38:48;22.70;;;12.27;;
56943;SDS011;42848;42.524;12.052;2022-11-21T15:46:19;90.82;;;46.15;;
56943;SDS011;42848;42.524;12.052;2022-11-21T15:48:53;45.90;;;25.67;;
56943;SDS011;42848;42.524;12.052;2022-11-21T15:51:21;40.38;;;25.15;;
56943;SDS011;42848;42.524;12.052;2022-11-21T15:53:51;41.72;;;23.52;;
56943;SDS011;42848;42.524;12.052;2022-11-21T15:56:17;38.90;;;21.48;;
56943;SDS011;42848;42.524;12.052;2022-11-21T15:58:46;29.65;;;17.13;;
56943;SDS011;42848;42.524;12.052;2022-11-21T16:01:16;25.02;;;14.95;;
56943;SDS011;42848;42.524;12.052;2022-11-21T16:03:44;28.20;;;17.77;;
56943;SDS011;42848;42.524;12.052;2022-11-21T16:06:12;24.55;;;16.10;;
56943;SDS011;42848;42.524;12.052;2022-11-21T16:08:39;21.58;;;13.93;;
56943;SDS011;42848;42.524;12.052;2022-11-21T16:11:06;14.45;;;9.93;;
56943;SDS011;42848;42.524;12.052;2022-11-21T16:13:32;16.45;;;11.02;;
56943;SDS011;42848;42.524;12.052;2022-11-21T16:16:00;14.38;;;8.18;;
56943;SDS011;42848;42.524;12.052;2022-11-21T16:18:26;17.55;;;10.43;;
56943;SDS011;42848;42.524;12.052;2022-11-21T16:21:02;19.27;;;11.18;;
56943;SDS011;42848;42.524;12.052;2022-11-21T16:23:29;32.97;;;21.08;;
56943;SDS011;42848;42.524;12.052;2022-11-21T16:25:55;22.83;;;14.48;;
56943;SDS011;42848;42.524;12.052;2022-11-21T16:28:20;26.90;;;16.58;;
56943;SDS011;42848;42.524;12.052;2022-11-21T16:30:46;23.83;;;13.70;;
56943;SDS011;42848;42.524;12.052;2022-11-21T16:33:12;18.65;;;11.82;;
56943;SDS011;42848;42.524;12.052;2022-11-21T16:35:37;21.60;;;13.25;;
56943;SDS011;42848;42.524;12.052;2022-11-21T16:38:09;16.50;;;11.43;;
56943;SDS011;42848;42.524;12.052;2022-11-21T16:40:36;14.02;;;10.15;;
56943;SDS011;42848;42.524;12.052;2022-11-21T16:43:07;25.15;;;18.55;;
56943;SDS011;42848;42.524;12.052;2022-11-21T16:45:34;23.05;;;16.10;;
56943;SDS011;42848;42.524;12.052;2022-11-21T16:48:00;26.98;;;17.58;;
56943;SDS011;42848;42.524;12.052;2022-11-21T16:50:26;19.88;;;14.27;;
56943;SDS011;42848;42.524;12.052;2022-11-21T16:52:52;23.70;;;16.02;;
56943;SDS011;42848;42.524;12.052;2022-11-21T16:55:17;35.22;;;23.15;;
56943;SDS011;42848;42.524;12.052;2022-11-21T16:57:43;22.65;;;14.57;;
56943;SDS011;42848;42.524;12.052;2022-11-21T17:00:09;12.77;;;8.90;;
56943;SDS011;42848;42.524;12.052;2022-11-21T17:02:38;18.60;;;13.18;;
56943;SDS011;42848;42.524;12.052;2022-11-21T17:05:04;16.30;;;8.82;;
56943;SDS011;42848;42.524;12.052;2022-11-21T17:07:31;13.77;;;8.95;;
56943;SDS011;42848;42.524;12.052;2022-11-21T17:09:57;21.88;;;14.77;;
56943;SDS011;42848;42.524;12.052;2022-11-21T17:12:22;17.48;;;12.15;;
56943;SDS011;42848;42.524;12.052;2022-11-21T17:14:48;39.00;;;23.95;;